createdAt,value
2023-10-11T00:01:48.506Z,0.03
2023-10-11T00:06:20.731Z,0
2023-10-11T00:11:21.332Z,0.01
2023-10-11T00:16:07.869Z,0.03
2023-10-11T00:21:07.480Z,0.03
2023-10-11T00:26:07.565Z,0.03
2023-10-11T00:31:07.153Z,0.03
2023-10-11T00:36:07.342Z,0.03
2023-10-11T00:41:07.392Z,0
2023-10-11T00:46:07.065Z,0.03
2023-10-11T00:51:07.010Z,0.03
2023-10-11T00:56:04.236Z,0
2023-10-11T01:00:25.064Z,0.03
2023-10-11T01:05:25.123Z,0.03
2023-10-11T01:10:25.107Z,0.03
2023-10-11T01:15:24.787Z,0.02
2023-10-11T01:20:24.281Z,0
2023-10-11T01:25:24.588Z,0.03
2023-10-11T01:30:25.144Z,0
2023-10-11T01:35:25.545Z,0
2023-10-11T01:40:22.903Z,0.03
2023-10-11T01:45:22.606Z,0.02
2023-10-11T01:50:23.014Z,0.02
2023-10-11T01:55:22.889Z,0.03
2023-10-11T02:00:22.052Z,0.03
2023-10-11T02:05:22.599Z,0
2023-10-11T02:10:24.544Z,0.01
2023-10-11T02:15:22.003Z,0.01
2023-10-11T02:20:20.927Z,0.02
2023-10-11T02:25:21.191Z,0
2023-10-11T02:30:20.956Z,0.03
2023-10-11T02:35:21.372Z,0
2023-10-11T02:40:21.399Z,0.02
2023-10-11T02:45:07.736Z,0.03
2023-10-11T02:50:07.098Z,0
2023-10-11T02:55:06.900Z,0.03
2023-10-11T02:59:50.189Z,0
2023-10-11T03:04:50.499Z,0.03
2023-10-11T03:14:49.861Z,0.03
2023-10-11T03:19:49.873Z,0.03
2023-10-11T03:29:46.628Z,0.03
2023-10-11T03:34:46.408Z,0
2023-10-11T03:39:47.084Z,0.01
2023-10-11T03:44:45.722Z,0.03
2023-10-11T03:49:46.229Z,0.03
2023-10-11T03:54:46.328Z,0.02
2023-10-11T03:59:45.764Z,0.03
2023-10-11T04:04:47.423Z,0.03
2023-10-11T04:09:43.175Z,0
2023-10-11T04:14:42.725Z,0.03
2023-10-11T04:19:45.046Z,0
2023-10-11T04:24:43.275Z,0.03
2023-10-11T04:29:42.428Z,0
2023-10-11T04:34:42.663Z,0.01
2023-10-11T04:44:41.975Z,0.03
2023-10-11T04:49:40.441Z,0.01
2023-10-11T04:54:41.214Z,0.03
2023-10-11T04:59:40.492Z,0.02
2023-10-11T05:01:42.563Z,0
2023-10-11T05:06:02.879Z,0.03
2023-10-11T05:11:03.016Z,0.03
2023-10-11T05:16:05.541Z,0
2023-10-11T05:21:02.387Z,0.01
2023-10-11T05:26:01.034Z,0.02
2023-10-11T05:31:01.482Z,0.03
2023-10-11T05:36:00.839Z,0.17
2023-10-11T05:41:01.018Z,0.18
2023-10-11T05:46:00.397Z,0.28
2023-10-11T05:51:00.327Z,0.44
2023-10-11T05:56:00.655Z,0.62
2023-10-11T06:00:23.337Z,0.81
2023-10-11T06:05:23.467Z,1.06
2023-10-11T06:10:21.245Z,1.38
2023-10-11T06:15:20.693Z,1.63
2023-10-11T06:20:20.543Z,1.92
2023-10-11T06:25:20.621Z,2.28
2023-10-11T06:30:20.856Z,2.62
2023-10-11T06:35:21.168Z,2.97
2023-10-11T06:40:21.162Z,3.38
2023-10-11T06:45:21.029Z,3.78
2023-10-11T06:50:19.036Z,4.18
2023-10-11T06:55:18.651Z,4.55
2023-10-11T07:00:07.095Z,4.96
2023-10-11T07:05:08.174Z,5.41
2023-10-11T07:10:07.490Z,5.83
2023-10-11T07:15:07.542Z,6.29
2023-10-11T07:20:08.013Z,6.8
2023-10-11T07:25:08.211Z,7.27
2023-10-11T07:30:09.651Z,7.73
2023-10-11T07:35:06.076Z,8.23
2023-10-11T07:40:05.585Z,8.66
2023-10-11T07:45:05.184Z,9.13
2023-10-11T07:50:06.677Z,9.66
2023-10-11T07:55:05.562Z,10.13
2023-10-11T07:59:49.265Z,10.62
2023-10-11T08:04:49.951Z,11.08
2023-10-11T08:09:50.402Z,11.62
2023-10-11T08:14:47.531Z,12.14
2023-10-11T08:19:47.296Z,12.58
2023-10-11T08:24:46.302Z,13.08
2023-10-11T08:29:57.620Z,13.59
2023-10-11T08:34:46.029Z,14.13
2023-10-11T08:39:46.826Z,14.6
2023-10-11T08:44:45.769Z,15.12
2023-10-11T08:52:01.764Z,15.61
2023-10-11T08:54:46.797Z,16.12
2023-10-11T08:59:44.601Z,16.59
2023-10-11T09:04:45.198Z,16.99
2023-10-11T09:09:44.731Z,17.47
2023-10-11T09:14:44.196Z,17.9
2023-10-11T09:19:44.432Z,18.29
2023-10-11T09:24:46.044Z,18.71
2023-10-11T09:29:44.333Z,19.14
2023-10-11T09:34:45.653Z,19.52
2023-10-11T09:39:41.970Z,19.91
2023-10-11T09:44:41.599Z,20.23
2023-10-11T09:49:42.001Z,20.62
2023-10-11T09:54:42.058Z,20.91
2023-10-11T09:59:41.015Z,21.27
2023-10-11T10:01:43.544Z,21.34
2023-10-11T10:06:04.244Z,21.58
2023-10-11T10:11:04.409Z,21.83
2023-10-11T10:16:04.943Z,22.18
2023-10-11T10:21:01.151Z,22.35
2023-10-11T10:26:01.149Z,22.61
2023-10-11T10:31:01.148Z,22.81
2023-10-11T10:36:00.560Z,22.97
2023-10-11T10:41:00.775Z,23.12
2023-10-11T10:46:01.352Z,23.25
2023-10-11T10:51:00.876Z,23.41
2023-10-11T10:56:02.124Z,23.52
2023-10-11T11:00:23.018Z,23.57
2023-10-11T11:05:24.018Z,23.6
2023-10-11T11:10:22.025Z,23.63
2023-10-11T11:15:22.362Z,23.59
2023-10-11T11:20:22.908Z,20.86
2023-10-11T11:25:23.287Z,23.6
2023-10-11T11:30:22.390Z,23.53
2023-10-11T11:35:23.432Z,23.43
2023-10-11T11:40:19.930Z,23.29
2023-10-11T11:45:20.010Z,23.29
2023-10-11T11:50:19.443Z,23.14
2023-10-11T11:55:20.084Z,22.45
2023-10-11T12:00:05.642Z,22.27
2023-10-11T12:05:06.735Z,22.23
2023-10-11T12:10:18.619Z,21.86
2023-10-11T12:15:05.511Z,22.22
2023-10-11T12:20:03.649Z,21.98
2023-10-11T12:25:06.860Z,21.69
2023-10-11T12:30:08.579Z,21.44
2023-10-11T12:35:04.134Z,21.09
2023-10-11T12:40:03.497Z,20.83
2023-10-11T12:45:03.599Z,20.47
2023-10-11T12:50:04.630Z,20.09
2023-10-11T12:55:03.501Z,19.76
2023-10-11T12:59:46.474Z,19.33
2023-10-11T13:01:53.349Z,19.27
2023-10-11T13:06:08.677Z,18.89
2023-10-11T13:11:19.677Z,18.35
2023-10-11T13:16:23.646Z,17.82
2023-10-11T13:21:20.686Z,17.43
2023-10-11T13:26:32.273Z,17.05
2023-10-11T13:31:23.287Z,16.5
2023-10-11T13:36:19.780Z,15.87
2023-10-11T13:41:19.531Z,15.14
2023-10-11T13:46:19.941Z,14.59
2023-10-11T13:51:08.778Z,14.32
2023-10-11T13:56:19.945Z,14.12
2023-10-11T14:00:43.182Z,13.65
2023-10-11T14:05:42.038Z,13.11
2023-10-11T14:10:44.780Z,12.63
2023-10-11T14:15:41.898Z,12.13
2023-10-11T14:20:42.196Z,11.71
2023-10-11T14:25:41.863Z,11.15
2023-10-11T14:30:41.520Z,10.72
2023-10-11T14:35:41.922Z,10.28
2023-10-11T14:40:42.026Z,9.77
2023-10-11T14:45:40.600Z,9.08
2023-10-11T14:50:40.733Z,8.79
2023-10-11T14:55:40.680Z,8.21
2023-10-11T15:00:20.376Z,7.74
2023-10-11T15:05:21.097Z,7.23
2023-10-11T15:10:20.977Z,6.79
2023-10-11T15:15:21.819Z,6.31
2023-10-11T15:20:22.260Z,5.8
2023-10-11T15:25:19.579Z,5.29
2023-10-11T15:30:19.884Z,4.85
2023-10-11T15:35:20.237Z,4.44
2023-10-11T15:40:19.654Z,4.02
2023-10-11T15:45:20.174Z,3.6
2023-10-11T15:50:09.187Z,3.2
2023-10-11T15:55:07.343Z,2.81
2023-10-11T15:59:48.949Z,2.47
2023-10-11T16:04:49.422Z,2.1
2023-10-11T16:09:48.248Z,1.76
2023-10-11T16:14:48.076Z,1.5
2023-10-11T16:19:48.290Z,1.23
2023-10-11T16:24:47.194Z,0.94
2023-10-11T16:29:47.091Z,0.74
2023-10-11T16:34:45.835Z,0.54
2023-10-11T16:39:51.580Z,0.38
2023-10-11T16:44:45.327Z,0.2
2023-10-11T16:49:45.265Z,0.14
2023-10-11T16:54:44.530Z,0.09
2023-10-11T16:59:44.299Z,0.02
2023-10-11T17:04:46.448Z,0.01
2023-10-11T17:09:44.081Z,0.04
2023-10-11T17:19:41.573Z,0.03
2023-10-11T17:24:40.685Z,0.03
2023-10-11T17:29:40.308Z,0
2023-10-11T17:34:40.601Z,0.01
2023-10-11T17:39:40.073Z,0.02
2023-10-11T17:44:40.217Z,0.02
2023-10-11T17:49:40.633Z,0
2023-10-11T17:54:40.078Z,0.03
2023-10-11T17:59:38.369Z,0.01
2023-10-11T18:04:38.992Z,0
2023-10-11T18:09:38.254Z,0.01
2023-10-11T18:14:37.587Z,0.01
2023-10-11T18:19:37.564Z,0
2023-10-11T18:24:37.647Z,0
2023-10-11T18:29:37.254Z,0.01
2023-10-11T18:34:37.420Z,0.01
2023-10-11T18:39:34.574Z,0.03
2023-10-11T18:44:34.565Z,0.01
2023-10-11T18:49:33.793Z,0.03
2023-10-11T18:54:33.951Z,0.02
2023-10-11T18:59:33.510Z,0.02
2023-10-11T19:04:34.557Z,0.01
2023-10-11T19:09:33.882Z,0.03
2023-10-11T19:14:34.010Z,0.03
2023-10-11T19:19:34.683Z,0.03
2023-10-11T19:24:30.880Z,0.03
2023-10-11T19:29:31.111Z,0
2023-10-11T19:34:30.607Z,0.02
2023-10-11T19:39:30.202Z,0
2023-10-11T19:44:30.184Z,0.01
2023-10-11T19:49:30.624Z,0
2023-10-11T19:54:30.287Z,0
2023-10-11T19:59:31.424Z,0
2023-10-11T20:01:33.587Z,0.01
2023-10-11T20:05:52.591Z,0.02
2023-10-11T20:10:52.300Z,0
2023-10-11T20:15:52.552Z,0.02
2023-10-11T20:20:52.337Z,0
2023-10-11T20:25:52.979Z,0.01
2023-10-11T20:30:52.111Z,0.04
2023-10-11T20:35:51.893Z,0.03
2023-10-11T20:40:50.556Z,0.02
2023-10-11T20:45:50.761Z,0.03
2023-10-11T20:50:50.502Z,0.01
2023-10-11T20:55:50.311Z,0
2023-10-11T21:00:22.625Z,0.01
2023-10-11T21:05:23.119Z,0
2023-10-11T21:10:22.855Z,0
2023-10-11T21:15:21.166Z,0.03
2023-10-11T21:20:21.030Z,0.03
2023-10-11T21:25:20.967Z,0.03
2023-10-11T21:30:20.890Z,0.03
2023-10-11T21:35:21.117Z,0.03
2023-10-11T21:40:21.320Z,0
2023-10-11T21:45:22.066Z,0.02
2023-10-11T21:50:07.273Z,0.02
2023-10-11T21:55:07.211Z,0.02
2023-10-11T21:59:59.845Z,0.03
2023-10-11T22:05:00.412Z,0
2023-10-11T22:10:00.133Z,0.01
2023-10-11T22:15:00.243Z,0
2023-10-11T22:20:00.768Z,0.03
2023-10-11T22:24:59.555Z,0.02
2023-10-11T22:29:58.080Z,0
2023-10-11T22:35:04.086Z,0.01
2023-10-11T22:39:58.154Z,0
2023-10-11T22:44:58.265Z,0
2023-10-11T22:49:58.224Z,0
2023-10-11T22:59:57.727Z,0.03
2023-10-11T23:04:58.289Z,0.02
2023-10-11T23:09:56.235Z,0
2023-10-11T23:14:56.558Z,0.03
2023-10-11T23:19:56.124Z,0
2023-10-11T23:24:56.520Z,0
2023-10-11T23:34:56.906Z,0.03
2023-10-11T23:39:56.215Z,0.01
2023-10-11T23:44:55.868Z,0.03
2023-10-11T23:49:58.617Z,0.03
2023-10-11T23:54:53.417Z,0
2023-10-11T23:59:51.308Z,0.01
